sensor_id;sensor_type;location;lat;lon;timestamp;P1;durP1;ratioP1;P2;durP2;ratioP2
41755;SDS011;27435;48.480;9.258;2022-07-30T00:01:25;4.15;;;2.70;;
41755;SDS011;27435;48.480;9.258;2022-07-30T00:03:51;5.90;;;2.70;;
41755;SDS011;27435;48.480;9.258;2022-07-30T00:06:16;5.68;;;2.92;;
41755;SDS011;27435;48.480;9.258;2022-07-30T00:08:42;6.40;;;3.08;;
41755;SDS011;27435;48.480;9.258;2022-07-30T00:11:07;4.03;;;2.63;;
41755;SDS011;27435;48.480;9.258;2022-07-30T00:13:35;8.27;;;2.75;;
41755;SDS011;27435;48.480;9.258;2022-07-30T00:16:00;4.18;;;3.00;;
41755;SDS011;27435;48.480;9.258;2022-07-30T00:18:26;5.28;;;2.53;;
41755;SDS011;27435;48.480;9.258;2022-07-30T00:20:52;5.25;;;2.97;;
41755;SDS011;27435;48.480;9.258;2022-07-30T00:23:17;6.97;;;3.45;;
41755;SDS011;27435;48.480;9.258;2022-07-30T00:25:43;4.10;;;2.70;;
41755;SDS011;27435;48.480;9.258;2022-07-30T00:28:09;8.45;;;3.35;;
41755;SDS011;27435;48.480;9.258;2022-07-30T00:30:34;11.80;;;3.05;;
41755;SDS011;27435;48.480;9.258;2022-07-30T00:33:00;7.32;;;3.20;;
41755;SDS011;27435;48.480;9.258;2022-07-30T00:35:26;7.70;;;3.10;;
41755;SDS011;27435;48.480;9.258;2022-07-30T00:37:52;5.72;;;3.08;;
41755;SDS011;27435;48.480;9.258;2022-07-30T00:40:17;4.60;;;2.97;;
41755;SDS011;27435;48.480;9.258;2022-07-30T00:42:44;6.97;;;3.20;;
41755;SDS011;27435;48.480;9.258;2022-07-30T00:45:12;9.30;;;3.30;;
41755;SDS011;27435;48.480;9.258;2022-07-30T00:47:38;7.90;;;3.40;;
41755;SDS011;27435;48.480;9.258;2022-07-30T00:50:06;8.23;;;3.33;;
41755;SDS011;27435;48.480;9.258;2022-07-30T00:52:34;6.22;;;3.40;;
41755;SDS011;27435;48.480;9.258;2022-07-30T00:55:02;5.85;;;3.13;;
41755;SDS011;27435;48.480;9.258;2022-07-30T00:57:29;7.43;;;3.20;;
41755;SDS011;27435;48.480;9.258;2022-07-30T00:59:54;6.97;;;2.83;;
41755;SDS011;27435;48.480;9.258;2022-07-30T01:02:20;6.50;;;3.00;;
41755;SDS011;27435;48.480;9.258;2022-07-30T01:04:46;4.43;;;3.00;;
41755;SDS011;27435;48.480;9.258;2022-07-30T01:07:12;8.50;;;3.63;;
41755;SDS011;27435;48.480;9.258;2022-07-30T01:09:37;7.55;;;2.70;;
41755;SDS011;27435;48.480;9.258;2022-07-30T01:12:04;5.40;;;2.75;;
41755;SDS011;27435;48.480;9.258;2022-07-30T01:14:31;3.28;;;2.35;;
41755;SDS011;27435;48.480;9.258;2022-07-30T01:17:00;7.05;;;2.92;;
41755;SDS011;27435;48.480;9.258;2022-07-30T01:19:28;4.78;;;2.60;;
41755;SDS011;27435;48.480;9.258;2022-07-30T01:27:29;5.60;;;2.67;;
41755;SDS011;27435;48.480;9.258;2022-07-30T01:29:57;7.28;;;2.78;;
41755;SDS011;27435;48.480;9.258;2022-07-30T01:32:25;6.00;;;2.60;;
41755;SDS011;27435;48.480;9.258;2022-07-30T01:34:52;5.03;;;2.90;;
41755;SDS011;27435;48.480;9.258;2022-07-30T01:37:20;4.75;;;2.38;;
41755;SDS011;27435;48.480;9.258;2022-07-30T01:39:48;5.50;;;2.58;;
41755;SDS011;27435;48.480;9.258;2022-07-30T01:42:14;3.50;;;2.80;;
41755;SDS011;27435;48.480;9.258;2022-07-30T01:44:41;6.30;;;2.80;;
41755;SDS011;27435;48.480;9.258;2022-07-30T01:47:08;4.60;;;2.83;;
41755;SDS011;27435;48.480;9.258;2022-07-30T01:49:37;6.43;;;3.10;;
41755;SDS011;27435;48.480;9.258;2022-07-30T01:52:05;5.13;;;3.03;;
41755;SDS011;27435;48.480;9.258;2022-07-30T01:54:33;4.57;;;3.08;;
41755;SDS011;27435;48.480;9.258;2022-07-30T01:57:01;8.93;;;4.28;;
41755;SDS011;27435;48.480;9.258;2022-07-30T01:59:29;5.38;;;2.85;;
41755;SDS011;27435;48.480;9.258;2022-07-30T02:01:58;4.32;;;3.00;;
41755;SDS011;27435;48.480;9.258;2022-07-30T02:04:24;4.03;;;2.90;;
41755;SDS011;27435;48.480;9.258;2022-07-30T02:06:55;7.45;;;2.95;;
41755;SDS011;27435;48.480;9.258;2022-07-30T02:09:25;6.13;;;3.30;;
41755;SDS011;27435;48.480;9.258;2022-07-30T02:11:55;6.50;;;2.90;;
41755;SDS011;27435;48.480;9.258;2022-07-30T02:14:44;4.63;;;3.05;;
41755;SDS011;27435;48.480;9.258;2022-07-30T02:17:20;5.55;;;3.38;;
41755;SDS011;27435;48.480;9.258;2022-07-30T02:19:53;6.53;;;3.15;;
41755;SDS011;27435;48.480;9.258;2022-07-30T02:22:21;7.55;;;3.20;;
41755;SDS011;27435;48.480;9.258;2022-07-30T02:24:49;7.40;;;3.95;;
41755;SDS011;27435;48.480;9.258;2022-07-30T02:27:19;8.85;;;4.00;;
41755;SDS011;27435;48.480;9.258;2022-07-30T02:29:51;5.25;;;3.58;;
41755;SDS011;27435;48.480;9.258;2022-07-30T02:32:20;5.63;;;3.67;;
41755;SDS011;27435;48.480;9.258;2022-07-30T02:34:49;6.13;;;4.18;;
41755;SDS011;27435;48.480;9.258;2022-07-30T02:37:21;7.45;;;3.50;;
41755;SDS011;27435;48.480;9.258;2022-07-30T02:39:49;5.43;;;3.53;;
41755;SDS011;27435;48.480;9.258;2022-07-30T02:42:16;7.70;;;3.55;;
41755;SDS011;27435;48.480;9.258;2022-07-30T02:44:43;4.97;;;3.70;;
41755;SDS011;27435;48.480;9.258;2022-07-30T02:47:10;5.35;;;3.85;;
41755;SDS011;27435;48.480;9.258;2022-07-30T02:49:37;5.97;;;4.05;;
41755;SDS011;27435;48.480;9.258;2022-07-30T02:52:04;8.13;;;4.45;;
41755;SDS011;27435;48.480;9.258;2022-07-30T02:54:37;5.75;;;3.92;;
41755;SDS011;27435;48.480;9.258;2022-07-30T02:57:06;8.30;;;4.20;;
41755;SDS011;27435;48.480;9.258;2022-07-30T02:59:33;7.75;;;3.97;;
41755;SDS011;27435;48.480;9.258;2022-07-30T03:02:01;5.70;;;4.18;;
41755;SDS011;27435;48.480;9.258;2022-07-30T03:04:28;7.47;;;4.18;;
41755;SDS011;27435;48.480;9.258;2022-07-30T03:06:57;7.40;;;4.38;;
41755;SDS011;27435;48.480;9.258;2022-07-30T03:09:25;10.00;;;5.18;;
41755;SDS011;27435;48.480;9.258;2022-07-30T03:11:51;6.13;;;4.45;;
41755;SDS011;27435;48.480;9.258;2022-07-30T03:14:17;7.93;;;4.43;;
41755;SDS011;27435;48.480;9.258;2022-07-30T03:16:46;8.05;;;4.43;;
41755;SDS011;27435;48.480;9.258;2022-07-30T03:19:15;7.72;;;4.47;;
41755;SDS011;27435;48.480;9.258;2022-07-30T03:21:44;6.20;;;4.25;;
41755;SDS011;27435;48.480;9.258;2022-07-30T03:24:11;7.85;;;4.80;;
41755;SDS011;27435;48.480;9.258;2022-07-30T03:26:39;8.25;;;5.30;;
41755;SDS011;27435;48.480;9.258;2022-07-30T03:29:06;10.43;;;4.93;;
41755;SDS011;27435;48.480;9.258;2022-07-30T03:31:34;6.13;;;4.60;;
41755;SDS011;27435;48.480;9.258;2022-07-30T03:34:00;12.13;;;5.38;;
41755;SDS011;27435;48.480;9.258;2022-07-30T03:36:26;7.85;;;4.70;;
41755;SDS011;27435;48.480;9.258;2022-07-30T03:38:53;5.70;;;4.05;;
41755;SDS011;27435;48.480;9.258;2022-07-30T03:41:19;7.90;;;4.45;;
41755;SDS011;27435;48.480;9.258;2022-07-30T03:43:46;6.88;;;5.40;;
41755;SDS011;27435;48.480;9.258;2022-07-30T03:46:13;8.63;;;5.00;;
41755;SDS011;27435;48.480;9.258;2022-07-30T03:48:40;8.18;;;5.38;;
41755;SDS011;27435;48.480;9.258;2022-07-30T03:51:07;9.27;;;4.93;;
41755;SDS011;27435;48.480;9.258;2022-07-30T03:53:34;8.05;;;5.10;;
41755;SDS011;27435;48.480;9.258;2022-07-30T03:56:00;14.70;;;6.32;;
41755;SDS011;27435;48.480;9.258;2022-07-30T03:58:26;8.30;;;6.00;;
41755;SDS011;27435;48.480;9.258;2022-07-30T04:00:52;9.55;;;6.43;;
41755;SDS011;27435;48.480;9.258;2022-07-30T04:03:27;11.10;;;5.60;;
41755;SDS011;27435;48.480;9.258;2022-07-30T04:05:54;10.98;;;5.15;;
41755;SDS011;27435;48.480;9.258;2022-07-30T04:08:20;8.68;;;5.65;;
41755;SDS011;27435;48.480;9.258;2022-07-30T04:10:47;7.50;;;5.60;;
41755;SDS011;27435;48.480;9.258;2022-07-30T04:13:13;10.45;;;5.90;;
41755;SDS011;27435;48.480;9.258;2022-07-30T04:15:50;9.52;;;5.75;;
41755;SDS011;27435;48.480;9.258;2022-07-30T04:18:43;9.07;;;4.93;;
41755;SDS011;27435;48.480;9.258;2022-07-30T04:21:13;9.93;;;5.72;;
41755;SDS011;27435;48.480;9.258;2022-07-30T04:23:42;8.50;;;5.43;;
41755;SDS011;27435;48.480;9.258;2022-07-30T04:26:08;6.85;;;5.32;;
41755;SDS011;27435;48.480;9.258;2022-07-30T04:28:34;12.50;;;5.50;;
41755;SDS011;27435;48.480;9.258;2022-07-30T04:31:00;7.72;;;5.70;;
41755;SDS011;27435;48.480;9.258;2022-07-30T04:33:27;7.70;;;5.80;;
41755;SDS011;27435;48.480;9.258;2022-07-30T04:35:53;10.70;;;5.60;;
41755;SDS011;27435;48.480;9.258;2022-07-30T04:38:19;8.25;;;5.50;;
41755;SDS011;27435;48.480;9.258;2022-07-30T04:40:45;8.88;;;6.75;;
41755;SDS011;27435;48.480;9.258;2022-07-30T04:43:11;10.10;;;5.63;;
41755;SDS011;27435;48.480;9.258;2022-07-30T04:45:37;11.18;;;5.80;;
41755;SDS011;27435;48.480;9.258;2022-07-30T04:48:04;9.60;;;5.60;;
41755;SDS011;27435;48.480;9.258;2022-07-30T04:50:30;9.00;;;5.80;;
41755;SDS011;27435;48.480;9.258;2022-07-30T04:52:59;7.82;;;6.13;;
41755;SDS011;27435;48.480;9.258;2022-07-30T04:55:26;9.07;;;6.43;;
41755;SDS011;27435;48.480;9.258;2022-07-30T04:57:52;11.90;;;5.53;;
41755;SDS011;27435;48.480;9.258;2022-07-30T05:00:19;9.85;;;5.43;;
41755;SDS011;27435;48.480;9.258;2022-07-30T05:02:45;8.07;;;5.88;;
41755;SDS011;27435;48.480;9.258;2022-07-30T05:05:14;7.55;;;5.85;;
41755;SDS011;27435;48.480;9.258;2022-07-30T05:07:40;8.00;;;5.68;;
41755;SDS011;27435;48.480;9.258;2022-07-30T05:10:07;11.18;;;6.15;;
41755;SDS011;27435;48.480;9.258;2022-07-30T05:12:35;12.70;;;7.18;;
41755;SDS011;27435;48.480;9.258;2022-07-30T05:15:02;8.27;;;5.97;;
41755;SDS011;27435;48.480;9.258;2022-07-30T05:17:29;8.48;;;6.18;;
41755;SDS011;27435;48.480;9.258;2022-07-30T05:19:55;11.68;;;6.50;;
41755;SDS011;27435;48.480;9.258;2022-07-30T05:22:20;9.27;;;5.80;;
41755;SDS011;27435;48.480;9.258;2022-07-30T05:24:46;9.60;;;6.10;;
41755;SDS011;27435;48.480;9.258;2022-07-30T05:27:11;7.68;;;5.80;;
41755;SDS011;27435;48.480;9.258;2022-07-30T05:29:37;12.50;;;6.07;;
41755;SDS011;27435;48.480;9.258;2022-07-30T05:32:03;9.63;;;6.93;;
41755;SDS011;27435;48.480;9.258;2022-07-30T05:34:28;15.18;;;6.57;;
41755;SDS011;27435;48.480;9.258;2022-07-30T05:36:54;9.07;;;6.07;;
41755;SDS011;27435;48.480;9.258;2022-07-30T05:39:19;10.52;;;6.03;;
41755;SDS011;27435;48.480;9.258;2022-07-30T05:41:46;12.27;;;6.93;;
41755;SDS011;27435;48.480;9.258;2022-07-30T05:44:12;12.82;;;5.47;;
41755;SDS011;27435;48.480;9.258;2022-07-30T05:46:38;9.63;;;5.88;;
41755;SDS011;27435;48.480;9.258;2022-07-30T05:49:03;9.98;;;5.85;;
41755;SDS011;27435;48.480;9.258;2022-07-30T05:51:30;10.40;;;5.28;;
41755;SDS011;27435;48.480;9.258;2022-07-30T05:53:56;10.48;;;4.80;;
41755;SDS011;27435;48.480;9.258;2022-07-30T05:56:21;10.93;;;4.32;;
41755;SDS011;27435;48.480;9.258;2022-07-30T05:58:47;9.25;;;4.78;;
41755;SDS011;27435;48.480;9.258;2022-07-30T06:01:12;9.32;;;4.40;;
41755;SDS011;27435;48.480;9.258;2022-07-30T06:03:38;4.80;;;3.17;;
41755;SDS011;27435;48.480;9.258;2022-07-30T06:06:04;6.47;;;3.45;;
41755;SDS011;27435;48.480;9.258;2022-07-30T06:08:31;10.48;;;3.75;;
41755;SDS011;27435;48.480;9.258;2022-07-30T06:10:57;6.50;;;3.55;;
41755;SDS011;27435;48.480;9.258;2022-07-30T06:13:23;7.47;;;3.42;;
41755;SDS011;27435;48.480;9.258;2022-07-30T06:15:48;8.63;;;3.35;;
41755;SDS011;27435;48.480;9.258;2022-07-30T06:18:14;8.80;;;3.20;;
41755;SDS011;27435;48.480;9.258;2022-07-30T06:20:40;5.95;;;3.00;;
41755;SDS011;27435;48.480;9.258;2022-07-30T06:23:05;7.47;;;2.88;;
41755;SDS011;27435;48.480;9.258;2022-07-30T06:25:31;9.50;;;3.17;;
41755;SDS011;27435;48.480;9.258;2022-07-30T06:27:57;8.07;;;2.88;;
41755;SDS011;27435;48.480;9.258;2022-07-30T06:30:22;7.35;;;3.00;;
41755;SDS011;27435;48.480;9.258;2022-07-30T06:32:48;7.40;;;2.78;;
41755;SDS011;27435;48.480;9.258;2022-07-30T06:35:14;9.75;;;3.05;;
41755;SDS011;27435;48.480;9.258;2022-07-30T06:37:40;6.80;;;3.00;;
41755;SDS011;27435;48.480;9.258;2022-07-30T06:40:07;7.57;;;3.10;;
41755;SDS011;27435;48.480;9.258;2022-07-30T06:42:33;6.65;;;2.70;;
41755;SDS011;27435;48.480;9.258;2022-07-30T06:44:59;7.15;;;3.40;;
41755;SDS011;27435;48.480;9.258;2022-07-30T06:47:24;7.05;;;3.20;;
41755;SDS011;27435;48.480;9.258;2022-07-30T06:49:53;8.02;;;3.40;;
41755;SDS011;27435;48.480;9.258;2022-07-30T06:52:21;4.82;;;3.05;;
41755;SDS011;27435;48.480;9.258;2022-07-30T06:54:47;6.00;;;3.20;;
41755;SDS011;27435;48.480;9.258;2022-07-30T06:57:13;7.72;;;4.10;;
41755;SDS011;27435;48.480;9.258;2022-07-30T06:59:40;7.68;;;4.40;;
41755;SDS011;27435;48.480;9.258;2022-07-30T07:02:05;8.93;;;4.68;;
41755;SDS011;27435;48.480;9.258;2022-07-30T07:04:31;9.77;;;4.65;;
41755;SDS011;27435;48.480;9.258;2022-07-30T07:06:57;7.88;;;4.82;;
41755;SDS011;27435;48.480;9.258;2022-07-30T07:09:22;12.18;;;5.60;;
41755;SDS011;27435;48.480;9.258;2022-07-30T07:11:48;9.85;;;4.40;;
41755;SDS011;27435;48.480;9.258;2022-07-30T07:14:14;10.88;;;4.80;;
41755;SDS011;27435;48.480;9.258;2022-07-30T07:16:39;12.85;;;6.40;;
41755;SDS011;27435;48.480;9.258;2022-07-30T07:19:05;10.07;;;5.60;;
41755;SDS011;27435;48.480;9.258;2022-07-30T07:21:30;9.02;;;5.68;;
41755;SDS011;27435;48.480;9.258;2022-07-30T07:23:56;10.98;;;6.65;;
41755;SDS011;27435;48.480;9.258;2022-07-30T07:26:24;13.10;;;6.13;;
41755;SDS011;27435;48.480;9.258;2022-07-30T07:28:50;11.43;;;6.85;;
41755;SDS011;27435;48.480;9.258;2022-07-30T07:31:16;12.20;;;7.00;;
41755;SDS011;27435;48.480;9.258;2022-07-30T07:33:41;10.85;;;6.90;;
41755;SDS011;27435;48.480;9.258;2022-07-30T07:36:07;9.18;;;6.30;;
41755;SDS011;27435;48.480;9.258;2022-07-30T07:38:32;9.75;;;6.20;;
41755;SDS011;27435;48.480;9.258;2022-07-30T07:40:58;11.88;;;5.80;;
41755;SDS011;27435;48.480;9.258;2022-07-30T07:43:24;9.50;;;5.20;;
41755;SDS011;27435;48.480;9.258;2022-07-30T07:45:50;10.38;;;5.30;;
41755;SDS011;27435;48.480;9.258;2022-07-30T07:48:16;10.40;;;5.03;;
41755;SDS011;27435;48.480;9.258;2022-07-30T07:50:43;8.18;;;4.70;;
41755;SDS011;27435;48.480;9.258;2022-07-30T07:53:08;10.88;;;4.93;;
41755;SDS011;27435;48.480;9.258;2022-07-30T07:55:34;8.43;;;4.20;;
41755;SDS011;27435;48.480;9.258;2022-07-30T07:58:00;9.80;;;4.65;;
41755;SDS011;27435;48.480;9.258;2022-07-30T08:00:26;9.95;;;4.90;;
41755;SDS011;27435;48.480;9.258;2022-07-30T08:02:51;11.00;;;4.68;;
41755;SDS011;27435;48.480;9.258;2022-07-30T08:05:17;6.43;;;3.85;;
41755;SDS011;27435;48.480;9.258;2022-07-30T08:07:43;5.50;;;3.00;;
41755;SDS011;27435;48.480;9.258;2022-07-30T08:10:09;9.00;;;3.63;;
41755;SDS011;27435;48.480;9.258;2022-07-30T08:12:37;5.85;;;3.05;;
41755;SDS011;27435;48.480;9.258;2022-07-30T08:15:03;10.43;;;3.90;;
41755;SDS011;27435;48.480;9.258;2022-07-30T08:17:29;8.60;;;3.78;;
41755;SDS011;27435;48.480;9.258;2022-07-30T08:19:58;9.73;;;3.55;;
41755;SDS011;27435;48.480;9.258;2022-07-30T08:22:25;8.15;;;3.50;;
41755;SDS011;27435;48.480;9.258;2022-07-30T08:24:51;6.82;;;3.10;;
41755;SDS011;27435;48.480;9.258;2022-07-30T08:27:17;8.05;;;3.13;;
41755;SDS011;27435;48.480;9.258;2022-07-30T08:29:42;4.70;;;2.90;;
41755;SDS011;27435;48.480;9.258;2022-07-30T08:32:08;7.00;;;3.22;;
41755;SDS011;27435;48.480;9.258;2022-07-30T08:34:34;6.10;;;3.60;;
41755;SDS011;27435;48.480;9.258;2022-07-30T08:36:59;6.80;;;3.65;;
41755;SDS011;27435;48.480;9.258;2022-07-30T08:39:25;6.15;;;3.95;;
41755;SDS011;27435;48.480;9.258;2022-07-30T08:41:51;5.55;;;3.95;;
41755;SDS011;27435;48.480;9.258;2022-07-30T08:44:17;6.85;;;3.63;;
41755;SDS011;27435;48.480;9.258;2022-07-30T08:46:43;9.02;;;3.78;;
41755;SDS011;27435;48.480;9.258;2022-07-30T08:49:11;8.05;;;3.40;;
41755;SDS011;27435;48.480;9.258;2022-07-30T08:51:38;8.05;;;3.70;;
41755;SDS011;27435;48.480;9.258;2022-07-30T08:54:04;12.10;;;3.53;;
41755;SDS011;27435;48.480;9.258;2022-07-30T08:56:31;8.82;;;3.10;;
41755;SDS011;27435;48.480;9.258;2022-07-30T08:58:58;6.18;;;2.90;;
41755;SDS011;27435;48.480;9.258;2022-07-30T09:01:25;7.55;;;2.78;;
41755;SDS011;27435;48.480;9.258;2022-07-30T09:03:50;7.40;;;2.70;;
41755;SDS011;27435;48.480;9.258;2022-07-30T09:06:16;9.75;;;2.67;;
41755;SDS011;27435;48.480;9.258;2022-07-30T09:08:42;3.60;;;2.70;;
41755;SDS011;27435;48.480;9.258;2022-07-30T09:11:07;4.38;;;2.83;;
41755;SDS011;27435;48.480;9.258;2022-07-30T09:13:34;4.15;;;2.17;;
41755;SDS011;27435;48.480;9.258;2022-07-30T09:16:05;7.88;;;2.45;;
41755;SDS011;27435;48.480;9.258;2022-07-30T09:18:38;5.95;;;2.60;;
41755;SDS011;27435;48.480;9.258;2022-07-30T09:24:03;4.13;;;2.70;;
41755;SDS011;27435;48.480;9.258;2022-07-30T09:26:31;7.95;;;2.50;;
41755;SDS011;27435;48.480;9.258;2022-07-30T09:29:19;4.72;;;2.58;;
41755;SDS011;27435;48.480;9.258;2022-07-30T09:32:00;5.63;;;2.30;;
41755;SDS011;27435;48.480;9.258;2022-07-30T09:36:56;4.70;;;2.00;;
41755;SDS011;27435;48.480;9.258;2022-07-30T09:39:33;7.60;;;2.40;;
41755;SDS011;27435;48.480;9.258;2022-07-30T09:42:00;5.57;;;1.85;;
41755;SDS011;27435;48.480;9.258;2022-07-30T09:44:27;7.20;;;2.25;;
41755;SDS011;27435;48.480;9.258;2022-07-30T09:46:53;7.53;;;2.63;;
41755;SDS011;27435;48.480;9.258;2022-07-30T09:49:29;5.00;;;1.80;;
41755;SDS011;27435;48.480;9.258;2022-07-30T09:54:21;4.53;;;1.90;;
41755;SDS011;27435;48.480;9.258;2022-07-30T09:56:46;4.07;;;1.73;;
41755;SDS011;27435;48.480;9.258;2022-07-30T09:59:27;4.65;;;1.70;;
41755;SDS011;27435;48.480;9.258;2022-07-30T10:01:54;5.53;;;1.63;;
41755;SDS011;27435;48.480;9.258;2022-07-30T10:06:51;5.13;;;2.08;;
41755;SDS011;27435;48.480;9.258;2022-07-30T10:09:50;3.80;;;1.60;;
41755;SDS011;27435;48.480;9.258;2022-07-30T10:12:11;3.45;;;2.05;;
41755;SDS011;27435;48.480;9.258;2022-07-30T10:14:39;4.63;;;1.40;;
41755;SDS011;27435;48.480;9.258;2022-07-30T10:17:07;5.65;;;1.80;;
41755;SDS011;27435;48.480;9.258;2022-07-30T10:19:34;5.78;;;1.67;;
41755;SDS011;27435;48.480;9.258;2022-07-30T10:22:01;4.38;;;1.27;;
41755;SDS011;27435;48.480;9.258;2022-07-30T10:24:27;4.65;;;1.67;;
41755;SDS011;27435;48.480;9.258;2022-07-30T10:26:55;4.80;;;1.52;;
41755;SDS011;27435;48.480;9.258;2022-07-30T10:29:21;3.08;;;1.30;;
41755;SDS011;27435;48.480;9.258;2022-07-30T10:31:47;3.42;;;1.35;;
41755;SDS011;27435;48.480;9.258;2022-07-30T10:34:15;4.40;;;1.38;;
41755;SDS011;27435;48.480;9.258;2022-07-30T10:36:42;8.57;;;1.50;;
41755;SDS011;27435;48.480;9.258;2022-07-30T10:39:13;4.60;;;1.35;;
41755;SDS011;27435;48.480;9.258;2022-07-30T10:44:29;3.78;;;1.35;;
41755;SDS011;27435;48.480;9.258;2022-07-30T10:47:07;3.40;;;1.50;;
41755;SDS011;27435;48.480;9.258;2022-07-30T10:49:37;3.25;;;1.23;;
41755;SDS011;27435;48.480;9.258;2022-07-30T10:52:04;3.63;;;1.27;;
41755;SDS011;27435;48.480;9.258;2022-07-30T11:02:22;3.50;;;1.40;;
41755;SDS011;27435;48.480;9.258;2022-07-30T11:07:55;4.10;;;1.55;;
41755;SDS011;27435;48.480;9.258;2022-07-30T11:10:57;6.05;;;1.60;;
41755;SDS011;27435;48.480;9.258;2022-07-30T11:19:07;2.45;;;1.23;;
41755;SDS011;27435;48.480;9.258;2022-07-30T11:21:37;5.60;;;1.50;;
41755;SDS011;27435;48.480;9.258;2022-07-30T11:24:03;7.20;;;1.50;;
41755;SDS011;27435;48.480;9.258;2022-07-30T11:29:31;5.43;;;1.30;;
41755;SDS011;27435;48.480;9.258;2022-07-30T11:43:24;3.13;;;1.27;;
41755;SDS011;27435;48.480;9.258;2022-07-30T11:46:12;4.10;;;1.08;;
41755;SDS011;27435;48.480;9.258;2022-07-30T11:48:42;3.05;;;1.10;;
41755;SDS011;27435;48.480;9.258;2022-07-30T11:51:18;5.82;;;1.00;;
41755;SDS011;27435;48.480;9.258;2022-07-30T11:53:45;4.43;;;1.35;;
41755;SDS011;27435;48.480;9.258;2022-07-30T11:56:27;3.10;;;1.25;;
41755;SDS011;27435;48.480;9.258;2022-07-30T11:58:59;4.18;;;1.20;;
41755;SDS011;27435;48.480;9.258;2022-07-30T12:01:26;4.72;;;1.40;;
41755;SDS011;27435;48.480;9.258;2022-07-30T12:03:52;7.22;;;1.48;;
41755;SDS011;27435;48.480;9.258;2022-07-30T12:06:19;2.60;;;1.30;;
41755;SDS011;27435;48.480;9.258;2022-07-30T12:08:46;2.85;;;1.23;;
41755;SDS011;27435;48.480;9.258;2022-07-30T12:11:16;4.10;;;1.42;;
41755;SDS011;27435;48.480;9.258;2022-07-30T12:13:42;3.10;;;1.02;;
41755;SDS011;27435;48.480;9.258;2022-07-30T12:16:09;5.30;;;1.00;;
41755;SDS011;27435;48.480;9.258;2022-07-30T12:18:36;3.58;;;1.00;;
41755;SDS011;27435;48.480;9.258;2022-07-30T12:21:06;3.75;;;1.20;;
41755;SDS011;27435;48.480;9.258;2022-07-30T12:23:32;2.22;;;0.95;;
41755;SDS011;27435;48.480;9.258;2022-07-30T12:25:59;4.85;;;1.00;;
41755;SDS011;27435;48.480;9.258;2022-07-30T12:28:26;5.18;;;1.40;;
41755;SDS011;27435;48.480;9.258;2022-07-30T12:30:53;3.53;;;1.13;;
41755;SDS011;27435;48.480;9.258;2022-07-30T12:33:20;4.53;;;1.73;;
41755;SDS011;27435;48.480;9.258;2022-07-30T12:35:57;11.02;;;1.30;;
41755;SDS011;27435;48.480;9.258;2022-07-30T12:38:24;3.15;;;0.95;;
41755;SDS011;27435;48.480;9.258;2022-07-30T12:46:23;2.70;;;1.10;;
41755;SDS011;27435;48.480;9.258;2022-07-30T12:48:51;1.58;;;0.70;;
41755;SDS011;27435;48.480;9.258;2022-07-30T12:51:24;2.28;;;1.00;;
41755;SDS011;27435;48.480;9.258;2022-07-30T12:53:53;3.13;;;1.20;;
41755;SDS011;27435;48.480;9.258;2022-07-30T12:56:24;2.50;;;1.00;;
41755;SDS011;27435;48.480;9.258;2022-07-30T12:58:52;2.88;;;1.00;;
41755;SDS011;27435;48.480;9.258;2022-07-30T13:01:37;3.05;;;1.10;;
41755;SDS011;27435;48.480;9.258;2022-07-30T13:04:07;2.63;;;0.90;;
41755;SDS011;27435;48.480;9.258;2022-07-30T13:06:34;5.60;;;1.05;;
41755;SDS011;27435;48.480;9.258;2022-07-30T13:09:00;6.30;;;1.17;;
41755;SDS011;27435;48.480;9.258;2022-07-30T13:14:01;3.13;;;1.20;;
41755;SDS011;27435;48.480;9.258;2022-07-30T13:16:29;3.50;;;1.00;;
41755;SDS011;27435;48.480;9.258;2022-07-30T13:18:56;4.18;;;1.10;;
41755;SDS011;27435;48.480;9.258;2022-07-30T13:21:22;4.72;;;1.10;;
41755;SDS011;27435;48.480;9.258;2022-07-30T13:23:48;5.35;;;1.10;;
41755;SDS011;27435;48.480;9.258;2022-07-30T13:26:14;3.22;;;1.08;;
41755;SDS011;27435;48.480;9.258;2022-07-30T13:28:40;5.25;;;1.20;;
41755;SDS011;27435;48.480;9.258;2022-07-30T13:31:05;2.22;;;0.80;;
41755;SDS011;27435;48.480;9.258;2022-07-30T13:33:32;3.40;;;0.85;;
41755;SDS011;27435;48.480;9.258;2022-07-30T13:35:59;2.95;;;0.80;;
41755;SDS011;27435;48.480;9.258;2022-07-30T13:38:24;3.03;;;1.02;;
41755;SDS011;27435;48.480;9.258;2022-07-30T13:40:51;3.55;;;0.90;;
41755;SDS011;27435;48.480;9.258;2022-07-30T13:43:18;2.67;;;1.02;;
41755;SDS011;27435;48.480;9.258;2022-07-30T13:45:43;3.33;;;0.77;;
41755;SDS011;27435;48.480;9.258;2022-07-30T13:48:09;1.70;;;0.70;;
41755;SDS011;27435;48.480;9.258;2022-07-30T13:50:35;3.10;;;0.70;;
41755;SDS011;27435;48.480;9.258;2022-07-30T13:53:01;1.95;;;0.77;;
41755;SDS011;27435;48.480;9.258;2022-07-30T13:55:26;3.55;;;0.98;;
41755;SDS011;27435;48.480;9.258;2022-07-30T13:57:52;2.80;;;0.77;;
41755;SDS011;27435;48.480;9.258;2022-07-30T14:00:18;1.48;;;0.77;;
41755;SDS011;27435;48.480;9.258;2022-07-30T14:02:43;1.80;;;0.80;;
41755;SDS011;27435;48.480;9.258;2022-07-30T14:05:09;3.03;;;1.08;;
41755;SDS011;27435;48.480;9.258;2022-07-30T14:07:35;2.55;;;0.90;;
41755;SDS011;27435;48.480;9.258;2022-07-30T14:10:05;3.33;;;1.02;;
41755;SDS011;27435;48.480;9.258;2022-07-30T14:12:32;4.13;;;0.85;;
41755;SDS011;27435;48.480;9.258;2022-07-30T14:14:59;4.57;;;1.02;;
41755;SDS011;27435;48.480;9.258;2022-07-30T14:17:25;2.20;;;0.93;;
41755;SDS011;27435;48.480;9.258;2022-07-30T14:19:50;3.85;;;0.95;;
41755;SDS011;27435;48.480;9.258;2022-07-30T14:22:19;3.60;;;0.90;;
41755;SDS011;27435;48.480;9.258;2022-07-30T14:24:45;2.47;;;1.00;;
41755;SDS011;27435;48.480;9.258;2022-07-30T14:27:11;3.15;;;1.10;;
41755;SDS011;27435;48.480;9.258;2022-07-30T14:29:37;3.28;;;1.10;;
41755;SDS011;27435;48.480;9.258;2022-07-30T14:32:03;3.13;;;1.00;;
41755;SDS011;27435;48.480;9.258;2022-07-30T14:34:28;4.13;;;1.05;;
41755;SDS011;27435;48.480;9.258;2022-07-30T14:36:54;1.80;;;0.82;;
41755;SDS011;27435;48.480;9.258;2022-07-30T14:39:20;2.38;;;1.00;;
41755;SDS011;27435;48.480;9.258;2022-07-30T14:41:45;3.30;;;0.80;;
41755;SDS011;27435;48.480;9.258;2022-07-30T14:44:11;3.95;;;1.00;;
41755;SDS011;27435;48.480;9.258;2022-07-30T14:46:38;7.13;;;1.10;;
41755;SDS011;27435;48.480;9.258;2022-07-30T14:49:04;1.65;;;0.93;;
41755;SDS011;27435;48.480;9.258;2022-07-30T14:51:30;1.88;;;0.90;;
41755;SDS011;27435;48.480;9.258;2022-07-30T14:53:55;3.05;;;1.10;;
41755;SDS011;27435;48.480;9.258;2022-07-30T14:56:21;3.50;;;1.10;;
41755;SDS011;27435;48.480;9.258;2022-07-30T14:58:49;2.17;;;1.00;;
41755;SDS011;27435;48.480;9.258;2022-07-30T15:01:15;3.25;;;1.20;;
41755;SDS011;27435;48.480;9.258;2022-07-30T15:03:41;3.53;;;1.40;;
41755;SDS011;27435;48.480;9.258;2022-07-30T15:06:07;2.20;;;1.00;;
41755;SDS011;27435;48.480;9.258;2022-07-30T15:08:35;1.98;;;1.17;;
41755;SDS011;27435;48.480;9.258;2022-07-30T15:11:01;5.10;;;1.13;;
41755;SDS011;27435;48.480;9.258;2022-07-30T15:13:26;4.50;;;1.10;;
41755;SDS011;27435;48.480;9.258;2022-07-30T15:15:52;4.38;;;1.00;;
41755;SDS011;27435;48.480;9.258;2022-07-30T15:18:18;4.15;;;1.13;;
41755;SDS011;27435;48.480;9.258;2022-07-30T15:20:43;3.78;;;0.93;;
41755;SDS011;27435;48.480;9.258;2022-07-30T15:23:09;1.50;;;0.90;;
41755;SDS011;27435;48.480;9.258;2022-07-30T15:25:35;3.20;;;1.00;;
41755;SDS011;27435;48.480;9.258;2022-07-30T15:28:01;3.35;;;0.90;;
41755;SDS011;27435;48.480;9.258;2022-07-30T15:30:27;2.08;;;1.10;;
41755;SDS011;27435;48.480;9.258;2022-07-30T15:32:53;2.47;;;1.00;;
41755;SDS011;27435;48.480;9.258;2022-07-30T15:35:19;4.97;;;1.38;;
41755;SDS011;27435;48.480;9.258;2022-07-30T15:37:45;2.58;;;1.20;;
41755;SDS011;27435;48.480;9.258;2022-07-30T15:40:11;5.40;;;1.20;;
41755;SDS011;27435;48.480;9.258;2022-07-30T15:42:37;4.60;;;1.27;;
41755;SDS011;27435;48.480;9.258;2022-07-30T15:45:03;2.17;;;1.08;;